Hauptseite
METAR-TAF:

METAR-TAF

Flughäfen :

Brüssel, Belgien

Flughafen Brüssel-Zaventem

Breite: 50-54N, Länge: 004-32E, Höhe: 55 m

Beobachtung

Neuester Wetterbericht von vor 23 Minuten, um 04:20 UTC
Wind 7 kt aus Südwest
Temperatur 2°C
Luftfeuchtigkeit 93%
Luftdruck 1023 hPa
Sichtweite 10 km oder mehr
Durchbrochene Bewölkung in der Höhe von 3500 ft

METAR: EBBR 180420Z 22007KT 9999 BKN035 02/01 Q1023 NOSIG

Zeit: 05:43 (04:43 UTC)

Prognose

Neuester Wetterbericht von vor 5 Stunden und 37 Minuten, um 23:06 UTC
Gültige Prognose vom 18 um 00 UTC bis 19 um 06 UTC
Wind 4 kt aus West/Südwest
Sichtweite 10 km oder mehr
Aufgelockert bewölkt in der Höhe von 4500 ft
Wahrscheinlichkeit 30% :
Zeitweise
vom 18 um 16 UTC bis 18 um 21 UTC
Durchbrochene Bewölkung in der Höhe von 1300 ft

TAF: EBBR 172306Z 1800/1906 25004KT 9999 SCT045 PROB30 TEMPO 1816/1821 BKN013

Wetterbeobachtungen und Prognosen von mehr als 4000 Flughäfen (METAR und TAF Bericht).

Die verfügbaren Stationen werden durch gelbe und rote Markierungen auf der Karte dargestellt.

Führen Sie die Maus auf sie, um den Namen der Station zu sehen.

Darauf klicken, um die Beobachtung von Wetterbeobachtungen und Prognosen zu sehen.

Um die Karte zu ändern : klicken Sie auf den grünen Tasten mit einem schwarzen Kreuz Zum Vergrößern, auf den grünen Button mit einem Gedankenstrich zu verkleinern, oder auf die grünen Pfeile für benachbarte Karten.


METAR-TAF: